岩国 の空港の天気 - METARとTAF

岩国飛行場 ( RJOI / IWK ) - 山口県岩国市
飛行場実況気象(Metar)
観測時間02/26 11:55 JST (02/26 02:55 UTC)
風向・風速南南東 3m/s
視程9000m
天気現象煙霧
少しの雲 雲底高度 910m
全天の8割程度の雲 雲底高度 1520m
気温10℃
湿度71%
気圧1022.2hPa
METARRJOI 260255Z 15005KT 9000 HZ FEW030 BKN050 10/05 A3019 RMK SLP222 T01000050 58010
過去の天気等 Google飛行場航空写真 Wunderground天気予報

過去48時間のMETAR

飛行場予報(TAF)
発表時間: -
26日13時 JST ~ 26日17時 JST に一時的に
風向・風速南南西 5m/s
26日18時 JST ~ 26日19時 JST に徐々に
風向・風速西北西 3m/s
視程9,000m
天気現象煙霧
少しの雲 雲底高度 760m
27日4時 JST から
風向・風速北西 3m/s
視程6,000m
天気現象もや
少しの雲 雲底高度 760m
少しの雲 雲底高度 7,320m
27日9時 JST ~ 27日10時 JST に徐々に
風向・風速東北東 3m/s
視程8,000m
天気現象煙霧
少しの雲 雲底高度 760m
全天の8割程度の雲 雲底高度 7,320m
TAF RJOI 2603/2703 17008KT 9000 HZ FEW025 BKN035 620352 QNH3015INS
TEMPO 2604/2608 20010KT
BECMG 2609/2610 30005KT 9000 HZ FEW025 600000 QNH3019INS
FM261900 31005KT 6000 BR FEW025 FEW240 QNH3023INS
BECMG 2700/2701 06006KT 8000 HZ FEW025 BKN240 QNH3025INS T13/2606Z T03/2621Z
日本の空港のMETAR・TAFへのリンク

RJTT 東京国際空港
RJAA 新東京国際空港
RJBB 関西国際空港
RJOO 大阪空港
RJGG 中部国際空港
RJCC 新千歳空港
RJFF 福岡空港
ROAH 那覇空港


RJEC 旭川空港
RJCH 函館空港
RJCK 釧路空港
RJCM 女満別空港
RJCB 帯広空港
RJSA 青森空港
RJSS 仙台空港
RJSK 秋田空港
RJSF 福島空港
RJAH 茨城空港
RJSN 新潟空港
RJNT 富山空港
RJNK 小松飛行場
RJNS 静岡空港
RJOH 美保飛行場
RJOC 出雲空港
RJOB 岡山空港
RJOA 広島空港
RJOI 岩国飛行場
RJOT 高松空港
RJOM 松山空港
RJOK 高知空港
RJFR 北九州空港
RJFT 熊本空港
RJFU 長崎空港
RJFS 佐賀空港
RJFO 大分空港
RJFM 宮崎空港
RJFK 鹿児島空港
ROIG 石垣島空港
RJTY 横田飛行場
ROTM 普天間飛行場
RODN 嘉手納飛行場